Vandiver, Alabama
Current Conditions -  °F | °C
As of 11:53 AM on Sunday 25 Jan 2015 (Local Time) from KBHM Reporting Station
Clear Clear  
Wind Chill: 56°   Ceiling: Unl
Heat Index: 56°   Visibility: 10mi
Dew Point: 35°   Wind: 16mph
Humidity: 45%   Direction: 200°SSW
Pressure: 29.83"   Gusts: NA
Location:  33.47°N, 86.51°W
Report Text: KBHM 251753Z 20014KT 10SM CLR 13/02 A2983 RMK AO2 SLP102 T01330017 10133 21011 58031
Loading
Personal Weather Stations






























Interactive Weather Map New forecast layout! Learn more

10-Day Weather Forecast

Advertisements
Track Severe Weather on mobile